createdAt,value
2022-12-11T00:00:41.409Z,0.87
2022-12-11T00:03:15.636Z,0.93
2022-12-11T00:05:46.703Z,0.80
2022-12-11T00:08:15.782Z,1.03
2022-12-11T00:10:49.068Z,2.10
2022-12-11T00:13:17.677Z,1.03
2022-12-11T00:15:46.216Z,0.67
2022-12-11T00:18:14.893Z,1.50
2022-12-11T00:20:43.551Z,1.10
2022-12-11T00:23:13.750Z,1.30
2022-12-11T00:25:45.412Z,1.20
2022-12-11T00:28:13.873Z,1.33
2022-12-11T00:30:42.637Z,1.30
2022-12-11T00:33:11.562Z,1.53
2022-12-11T00:35:40.149Z,1.20
2022-12-11T00:38:08.650Z,1.30
2022-12-11T00:40:39.402Z,0.90
2022-12-11T00:43:07.980Z,1.60
2022-12-11T00:45:38.170Z,1.33
2022-12-11T00:48:07.195Z,1.30
2022-12-11T00:50:35.756Z,1.30
2022-12-11T00:53:04.525Z,1.70
2022-12-11T00:55:33.401Z,0.90
2022-12-11T00:58:03.364Z,1.00
2022-12-11T01:00:31.944Z,1.37
2022-12-11T01:03:00.553Z,1.20
2022-12-11T01:05:29.055Z,1.70
2022-12-11T01:07:57.889Z,1.37
2022-12-11T01:10:26.645Z,1.73
2022-12-11T01:12:55.511Z,1.43
2022-12-11T01:15:27.624Z,1.43
2022-12-11T01:17:56.194Z,1.30
2022-12-11T01:20:26.001Z,1.43
2022-12-11T01:22:54.977Z,1.70
2022-12-11T01:25:23.931Z,1.40
2022-12-11T01:27:52.858Z,1.40
2022-12-11T01:30:22.001Z,1.23
2022-12-11T01:32:52.208Z,1.50
2022-12-11T01:35:21.141Z,1.83
2022-12-11T01:37:49.916Z,1.63
2022-12-11T01:40:19.892Z,1.60
2022-12-11T01:42:48.339Z,1.63
2022-12-11T01:45:29.272Z,1.00
2022-12-11T01:48:08.418Z,1.10
2022-12-11T01:50:38.925Z,1.50
2022-12-11T01:53:09.283Z,1.50
2022-12-11T01:55:40.188Z,1.37
2022-12-11T01:58:08.816Z,1.10
2022-12-11T02:00:37.285Z,1.53
2022-12-11T02:03:07.477Z,1.37
2022-12-11T02:05:36.122Z,1.50
2022-12-11T02:08:04.993Z,1.20
2022-12-11T02:10:41.099Z,1.60
2022-12-11T02:13:11.903Z,1.10
2022-12-11T02:15:44.604Z,1.17
2022-12-11T02:18:18.853Z,1.10
2022-12-11T02:20:50.584Z,1.00
2022-12-11T02:23:27.497Z,1.07
2022-12-11T02:25:59.614Z,1.03
2022-12-11T02:28:31.951Z,1.20
2022-12-11T02:31:02.850Z,1.27
2022-12-11T02:33:34.981Z,1.13
2022-12-11T02:36:05.988Z,0.93
2022-12-11T02:38:36.136Z,1.23
2022-12-11T02:41:06.419Z,1.20
2022-12-11T02:43:36.448Z,1.20
2022-12-11T02:46:06.396Z,1.00
2022-12-11T02:48:35.800Z,1.37
2022-12-11T02:51:06.788Z,1.30
2022-12-11T02:53:37.103Z,1.00
2022-12-11T02:56:13.582Z,1.13
2022-12-11T02:58:47.677Z,1.17
2022-12-11T03:01:16.304Z,1.20
2022-12-11T03:03:44.849Z,1.23
2022-12-11T03:06:15.659Z,1.20
2022-12-11T03:08:44.113Z,1.30
2022-12-11T03:11:12.709Z,1.00
2022-12-11T03:13:42.710Z,1.03
2022-12-11T03:16:17.347Z,1.13
2022-12-11T03:18:50.365Z,1.10
2022-12-11T03:21:21.099Z,1.30
2022-12-11T03:23:51.445Z,1.30
2022-12-11T03:26:20.955Z,1.17
2022-12-11T03:28:51.081Z,1.27
2022-12-11T03:31:30.753Z,0.97
2022-12-11T03:34:01.873Z,1.00
2022-12-11T03:36:35.058Z,1.13
2022-12-11T03:39:04.615Z,0.83
2022-12-11T03:41:33.587Z,1.03
2022-12-11T03:44:02.318Z,1.07
2022-12-11T03:46:33.521Z,1.00
2022-12-11T03:49:03.909Z,0.90
2022-12-11T03:51:35.356Z,1.10
2022-12-11T03:54:04.131Z,0.80
2022-12-11T03:56:34.256Z,0.87
2022-12-11T03:59:02.901Z,0.80
2022-12-11T04:01:32.799Z,1.07
2022-12-11T04:04:01.461Z,1.20
2022-12-11T04:06:30.055Z,1.37
2022-12-11T04:08:58.618Z,0.93
2022-12-11T04:11:36.184Z,0.87
2022-12-11T04:14:22.495Z,0.90
2022-12-11T04:16:52.574Z,0.90
2022-12-11T04:19:38.749Z,1.10
2022-12-11T04:22:25.018Z,0.70
2022-12-11T04:24:53.672Z,0.77
2022-12-11T04:27:36.094Z,0.67
2022-12-11T04:30:05.229Z,0.80
2022-12-11T04:32:35.729Z,0.87
2022-12-11T04:35:04.289Z,1.00
2022-12-11T04:37:32.846Z,0.90
2022-12-11T04:40:01.469Z,0.70
2022-12-11T04:42:30.038Z,0.87
2022-12-11T04:44:58.487Z,0.57
2022-12-11T04:47:27.586Z,0.73
2022-12-11T04:49:57.536Z,0.70
2022-12-11T04:52:25.982Z,0.73
2022-12-11T04:54:54.489Z,0.60
2022-12-11T04:57:23.257Z,0.90
2022-12-11T04:59:51.845Z,0.60
2022-12-11T05:02:20.314Z,0.90
2022-12-11T05:04:49.034Z,0.70
2022-12-11T05:07:18.869Z,0.80
2022-12-11T05:09:47.316Z,0.87
2022-12-11T05:12:15.989Z,0.70
2022-12-11T05:14:44.681Z,0.90
2022-12-11T05:17:13.541Z,0.70
2022-12-11T05:19:42.121Z,0.60
2022-12-11T05:22:10.747Z,0.80
2022-12-11T05:24:40.918Z,0.70
2022-12-11T05:27:10.242Z,1.00
2022-12-11T05:29:41.125Z,1.03
2022-12-11T05:32:09.873Z,0.70
2022-12-11T05:34:38.486Z,1.00
2022-12-11T05:37:06.948Z,1.03
2022-12-11T05:39:35.600Z,0.90
2022-12-11T05:42:05.883Z,0.63
2022-12-11T05:44:34.342Z,0.70
2022-12-11T05:47:02.938Z,0.70
2022-12-11T05:49:31.615Z,0.60
2022-12-11T05:52:00.080Z,1.00
2022-12-11T05:54:28.533Z,0.87
2022-12-11T05:56:57.449Z,0.67
2022-12-11T05:59:27.281Z,0.73
2022-12-11T06:01:55.836Z,0.70
2022-12-11T06:04:24.633Z,0.90
2022-12-11T06:06:55.600Z,0.87
2022-12-11T06:09:24.049Z,1.07
2022-12-11T06:11:52.619Z,1.17
2022-12-11T06:14:21.175Z,1.20
2022-12-11T06:16:51.337Z,1.07
2022-12-11T06:19:20.038Z,1.03
2022-12-11T06:21:49.532Z,1.30
2022-12-11T06:24:18.100Z,1.00
2022-12-11T06:26:47.125Z,1.23
2022-12-11T06:29:15.896Z,1.40
2022-12-11T06:31:44.475Z,1.67
2022-12-11T06:34:14.948Z,1.10
2022-12-11T06:36:45.816Z,1.73
2022-12-11T06:39:14.368Z,1.30
2022-12-11T06:41:43.020Z,1.10
2022-12-11T06:44:11.508Z,1.63
2022-12-11T06:46:40.049Z,1.50
2022-12-11T06:49:08.751Z,1.50
2022-12-11T06:51:38.634Z,1.40
2022-12-11T06:54:07.134Z,0.83
2022-12-11T06:56:36.561Z,1.17
2022-12-11T06:59:07.512Z,1.50
2022-12-11T07:01:36.215Z,1.30
2022-12-11T07:04:04.972Z,1.23
2022-12-11T07:06:33.584Z,0.90
2022-12-11T07:09:05.358Z,1.20
2022-12-11T07:11:33.993Z,1.10
2022-12-11T07:14:02.563Z,1.63
2022-12-11T07:16:31.215Z,1.50
2022-12-11T07:18:59.704Z,1.03
2022-12-11T07:21:28.351Z,1.47
2022-12-11T07:23:56.975Z,1.47
2022-12-11T07:26:26.812Z,1.30
2022-12-11T07:28:58.894Z,1.60
2022-12-11T07:31:28.078Z,1.37
2022-12-11T07:33:57.081Z,1.00
2022-12-11T07:36:25.889Z,1.37
2022-12-11T07:38:54.483Z,1.03
2022-12-11T07:41:23.171Z,1.67
2022-12-11T07:43:53.095Z,1.17
2022-12-11T07:46:22.792Z,1.40
2022-12-11T07:48:51.663Z,1.00
2022-12-11T07:51:22.965Z,1.40
2022-12-11T07:53:51.996Z,1.13
2022-12-11T07:56:20.878Z,1.50
2022-12-11T07:58:49.551Z,1.13
2022-12-11T08:01:20.397Z,1.37
2022-12-11T08:03:49.011Z,1.40
2022-12-11T08:06:17.665Z,1.40
2022-12-11T08:08:47.429Z,1.30
2022-12-11T08:11:16.895Z,1.07
2022-12-11T08:13:45.680Z,1.53
2022-12-11T08:16:15.308Z,1.20
2022-12-11T08:18:45.528Z,1.50
2022-12-11T08:21:15.242Z,1.40
2022-12-11T08:23:43.762Z,1.30
2022-12-11T08:26:13.809Z,0.93
2022-12-11T08:28:42.443Z,1.40
2022-12-11T08:31:11.249Z,1.13
2022-12-11T08:33:40.232Z,0.87
2022-12-11T08:36:11.683Z,1.27
2022-12-11T08:38:40.356Z,1.17
2022-12-11T08:41:12.480Z,1.30
2022-12-11T08:43:41.074Z,1.10
2022-12-11T08:46:09.913Z,1.40
2022-12-11T08:48:39.692Z,1.67
2022-12-11T08:51:09.180Z,1.40
2022-12-11T08:53:39.642Z,1.77
2022-12-11T08:56:09.649Z,1.57
2022-12-11T08:58:38.325Z,1.70
2022-12-11T09:01:08.985Z,2.00
2022-12-11T09:03:37.657Z,1.73
2022-12-11T09:06:07.130Z,2.33
2022-12-11T09:08:36.273Z,2.27
2022-12-11T09:11:06.871Z,3.00
2022-12-11T09:13:35.401Z,2.53
2022-12-11T09:16:05.600Z,2.90
2022-12-11T09:18:34.192Z,2.70
2022-12-11T09:21:03.147Z,2.63
2022-12-11T09:23:31.858Z,2.20
2022-12-11T09:26:00.465Z,2.20
2022-12-11T09:28:30.283Z,2.17
2022-12-11T09:30:58.928Z,1.73
2022-12-11T09:33:27.405Z,1.80
2022-12-11T09:35:59.632Z,2.03
2022-12-11T09:38:28.511Z,1.67
2022-12-11T09:40:57.718Z,1.50
2022-12-11T09:43:33.807Z,1.70
2022-12-11T09:46:04.810Z,1.80
2022-12-11T09:48:34.845Z,1.77
2022-12-11T09:51:07.682Z,1.60
2022-12-11T09:53:37.685Z,1.70
2022-12-11T09:56:09.571Z,1.70
2022-12-11T09:58:41.822Z,1.53
2022-12-11T10:01:12.943Z,1.70
2022-12-11T10:03:52.419Z,1.80
2022-12-11T10:06:24.268Z,1.60
2022-12-11T10:08:58.531Z,1.73
2022-12-11T10:11:34.461Z,1.50
2022-12-11T10:14:08.501Z,1.40
2022-12-11T10:16:38.317Z,1.63
2022-12-11T10:19:06.971Z,1.87
2022-12-11T10:21:38.802Z,2.30
2022-12-11T10:24:12.855Z,2.00
2022-12-11T10:26:41.834Z,2.30
2022-12-11T10:29:15.416Z,1.53
2022-12-11T10:31:46.678Z,2.00
2022-12-11T10:34:17.368Z,1.60
2022-12-11T10:36:46.329Z,2.00
2022-12-11T10:39:16.137Z,2.00
2022-12-11T10:41:46.186Z,2.10
2022-12-11T10:44:20.528Z,2.10
2022-12-11T10:46:49.407Z,1.77
2022-12-11T10:49:25.100Z,1.70
2022-12-11T10:51:54.517Z,1.67
2022-12-11T10:54:31.745Z,1.87
2022-12-11T10:57:00.774Z,1.77
2022-12-11T10:59:34.842Z,1.80
2022-12-11T11:02:04.068Z,1.93
2022-12-11T11:04:35.039Z,1.60
2022-12-11T11:07:04.448Z,1.73
2022-12-11T11:09:33.861Z,1.70
2022-12-11T11:12:07.620Z,1.87
2022-12-11T11:14:38.109Z,1.60
2022-12-11T11:17:06.775Z,1.37
2022-12-11T11:19:36.813Z,1.37
2022-12-11T11:22:08.841Z,1.30
2022-12-11T11:24:38.615Z,1.10
2022-12-11T11:27:14.161Z,1.27
2022-12-11T11:29:47.664Z,3.00
2022-12-11T11:32:20.607Z,2.20
2022-12-11T11:34:49.072Z,3.37
2022-12-11T11:37:24.903Z,1.53
2022-12-11T11:39:54.862Z,1.00
2022-12-11T11:42:27.862Z,1.13
2022-12-11T11:45:01.683Z,1.20
2022-12-11T11:47:32.552Z,0.93
2022-12-11T11:50:04.140Z,0.97
2022-12-11T11:52:36.632Z,1.10
2022-12-11T11:55:10.316Z,1.17
2022-12-11T11:57:42.503Z,0.73
2022-12-11T12:00:20.738Z,0.80
2022-12-11T12:02:50.835Z,1.07
2022-12-11T12:05:25.254Z,1.30
2022-12-11T12:08:00.544Z,1.00
2022-12-11T12:10:31.104Z,1.00
2022-12-11T12:13:03.109Z,0.80
2022-12-11T12:15:37.337Z,1.07
2022-12-11T12:18:11.953Z,1.03
2022-12-11T12:20:42.913Z,1.10
2022-12-11T12:23:34.865Z,0.83
2022-12-11T12:26:08.240Z,0.80
2022-12-11T12:28:41.399Z,0.70
2022-12-11T12:31:19.732Z,0.90
2022-12-11T12:33:54.096Z,0.90
2022-12-11T12:36:25.156Z,1.13
2022-12-11T12:38:56.392Z,1.37
2022-12-11T12:41:30.025Z,1.20
2022-12-11T12:44:02.662Z,0.90
2022-12-11T12:46:36.084Z,1.30
2022-12-11T12:49:05.784Z,0.97
2022-12-11T12:51:34.277Z,0.90
2022-12-11T12:54:11.944Z,0.80
2022-12-11T12:56:43.768Z,1.30
2022-12-11T12:59:20.564Z,0.83
2022-12-11T13:01:52.502Z,1.00
2022-12-11T13:04:54.376Z,1.10
2022-12-11T13:07:20.578Z,1.13
2022-12-11T13:09:57.966Z,1.07
2022-12-11T13:12:33.304Z,1.00
2022-12-11T13:15:02.543Z,0.77
2022-12-11T13:17:39.556Z,0.77
2022-12-11T13:20:16.366Z,0.90
2022-12-11T13:22:52.929Z,0.87
2022-12-11T13:25:26.817Z,1.17
2022-12-11T13:28:06.117Z,0.80
2022-12-11T13:30:35.487Z,1.00
2022-12-11T13:33:07.075Z,1.10
2022-12-11T13:35:36.587Z,0.70
2022-12-11T13:38:09.094Z,1.10
2022-12-11T13:40:40.901Z,1.07
2022-12-11T13:43:13.939Z,0.87
2022-12-11T13:45:46.863Z,1.13
2022-12-11T13:48:21.108Z,0.90
2022-12-11T13:50:49.814Z,0.83
2022-12-11T13:53:19.232Z,0.90
2022-12-11T13:55:47.687Z,1.00
2022-12-11T13:58:18.401Z,1.00
2022-12-11T14:00:55.296Z,1.33
2022-12-11T14:03:25.913Z,0.77
2022-12-11T14:05:54.888Z,1.20
2022-12-11T14:08:25.553Z,1.00
2022-12-11T14:10:54.890Z,0.87
2022-12-11T14:13:25.361Z,1.30
2022-12-11T14:15:54.502Z,1.00
2022-12-11T14:18:24.479Z,0.83
2022-12-11T14:20:58.793Z,0.90
2022-12-11T14:23:28.504Z,0.87
2022-12-11T14:25:58.747Z,1.00
2022-12-11T14:28:28.551Z,1.10
2022-12-11T14:30:59.262Z,1.00
2022-12-11T14:33:30.537Z,1.30
2022-12-11T14:36:00.793Z,1.30
2022-12-11T14:38:31.208Z,0.70
2022-12-11T14:41:02.406Z,0.80
2022-12-11T14:43:32.253Z,1.10
2022-12-11T14:46:02.730Z,0.90
2022-12-11T14:48:32.834Z,0.93
2022-12-11T14:51:05.537Z,0.90
2022-12-11T14:53:36.977Z,0.90
2022-12-11T14:56:07.937Z,0.93
2022-12-11T14:58:40.198Z,1.00
2022-12-11T15:01:09.792Z,1.13
2022-12-11T15:03:39.773Z,0.80
2022-12-11T15:06:24.699Z,0.90
2022-12-11T15:08:53.569Z,0.80
2022-12-11T15:11:22.405Z,0.70
2022-12-11T15:13:53.981Z,0.97
2022-12-11T15:16:24.005Z,1.30
2022-12-11T15:18:53.406Z,1.20
2022-12-11T15:21:30.443Z,1.20
2022-12-11T15:23:59.847Z,1.00
2022-12-11T15:26:34.972Z,1.10
2022-12-11T15:29:04.277Z,1.10
2022-12-11T15:31:33.598Z,1.50
2022-12-11T15:34:02.189Z,1.30
2022-12-11T15:36:35.005Z,1.00
2022-12-11T15:39:04.145Z,0.90
2022-12-11T15:41:34.648Z,1.20
2022-12-11T15:44:03.924Z,1.10
2022-12-11T15:46:37.338Z,1.00
2022-12-11T15:49:11.324Z,0.90
2022-12-11T15:51:43.389Z,0.80
2022-12-11T15:54:12.092Z,1.37
2022-12-11T15:56:41.131Z,1.20
2022-12-11T15:59:09.777Z,1.00
2022-12-11T16:01:38.472Z,1.30
2022-12-11T16:04:07.049Z,1.97
2022-12-11T16:06:35.813Z,1.00
2022-12-11T16:09:05.761Z,1.33
2022-12-11T16:11:34.403Z,1.17
2022-12-11T16:14:04.506Z,1.43
2022-12-11T16:16:33.353Z,1.70
2022-12-11T16:19:01.903Z,1.67
2022-12-11T16:21:30.523Z,1.40
2022-12-11T16:24:00.344Z,1.70
2022-12-11T16:26:30.202Z,1.93
2022-12-11T16:28:58.808Z,2.67
2022-12-11T16:31:27.343Z,1.97
2022-12-11T16:33:55.848Z,1.87
2022-12-11T16:36:25.277Z,2.40
2022-12-11T16:38:54.506Z,2.40
2022-12-11T16:41:23.857Z,2.70
2022-12-11T16:43:53.983Z,3.07
2022-12-11T16:46:23.436Z,2.50
2022-12-11T16:48:52.215Z,2.40
2022-12-11T16:51:20.757Z,2.70
2022-12-11T16:53:49.351Z,2.60
2022-12-11T16:56:17.838Z,2.73
2022-12-11T16:58:47.728Z,2.90
2022-12-11T17:01:18.105Z,2.57
2022-12-11T17:03:46.694Z,2.73
2022-12-11T17:06:16.146Z,3.47
2022-12-11T17:08:44.848Z,3.20
2022-12-11T17:11:15.146Z,2.77
2022-12-11T17:13:43.817Z,3.20
2022-12-11T17:16:13.315Z,2.90
2022-12-11T17:18:43.266Z,3.33
2022-12-11T17:21:13.947Z,3.03
2022-12-11T17:23:42.491Z,3.20
2022-12-11T17:26:11.572Z,2.50
2022-12-11T17:28:40.561Z,2.80
2022-12-11T17:31:09.840Z,3.10
2022-12-11T17:33:38.344Z,2.80
2022-12-11T17:36:09.032Z,3.00
2022-12-11T17:38:37.567Z,3.23
2022-12-11T17:41:07.351Z,2.60
2022-12-11T17:43:36.145Z,2.87
2022-12-11T17:46:05.593Z,3.03
2022-12-11T17:48:34.352Z,3.10
2022-12-11T17:51:04.627Z,3.20
2022-12-11T17:53:35.804Z,2.73
2022-12-11T17:56:05.393Z,2.30
2022-12-11T17:58:34.249Z,2.50
2022-12-11T18:01:03.042Z,2.83
2022-12-11T18:03:31.739Z,2.27
2022-12-11T18:06:05.635Z,2.23
2022-12-11T18:08:35.660Z,2.30
2022-12-11T18:11:10.038Z,2.10
2022-12-11T18:13:38.659Z,2.20
2022-12-11T18:16:08.272Z,1.60
2022-12-11T18:18:36.996Z,2.03
2022-12-11T18:21:05.850Z,1.80
2022-12-11T18:23:35.999Z,1.63
2022-12-11T18:26:04.571Z,1.73
2022-12-11T18:28:33.184Z,1.47
2022-12-11T18:31:02.586Z,1.97
2022-12-11T18:33:31.740Z,1.57
2022-12-11T18:36:00.268Z,1.50
2022-12-11T18:38:28.768Z,1.80
2022-12-11T18:40:58.777Z,1.50
2022-12-11T18:43:27.329Z,1.57
2022-12-11T18:45:56.508Z,1.63
2022-12-11T18:48:25.176Z,1.37
2022-12-11T18:50:53.902Z,1.73
2022-12-11T18:53:22.346Z,1.60
2022-12-11T18:55:55.816Z,1.43
2022-12-11T18:58:28.699Z,1.10
2022-12-11T19:00:57.327Z,1.23
2022-12-11T19:03:25.943Z,1.30
2022-12-11T19:05:54.564Z,1.20
2022-12-11T19:08:23.759Z,1.30
2022-12-11T19:10:52.576Z,1.03
2022-12-11T19:13:21.265Z,1.37
2022-12-11T19:15:51.225Z,1.20
2022-12-11T19:18:19.904Z,1.67
2022-12-11T19:20:52.190Z,1.33
2022-12-11T19:23:24.273Z,1.37
2022-12-11T19:25:52.857Z,1.10
2022-12-11T19:28:21.973Z,1.20
2022-12-11T19:30:51.900Z,1.27
2022-12-11T19:33:20.526Z,1.13
2022-12-11T19:35:48.976Z,1.30
2022-12-11T19:38:17.554Z,1.33
2022-12-11T19:40:46.675Z,1.20
2022-12-11T19:43:15.175Z,1.27
2022-12-11T19:45:45.835Z,1.03
2022-12-11T19:48:15.781Z,1.10
2022-12-11T19:50:44.252Z,1.30
2022-12-11T19:53:12.841Z,1.33
2022-12-11T19:55:42.288Z,1.20
2022-12-11T19:58:10.733Z,1.50
2022-12-11T20:00:39.387Z,1.03
2022-12-11T20:03:07.992Z,0.77
2022-12-11T20:05:37.879Z,1.47
2022-12-11T20:08:42.306Z,1.40
2022-12-11T20:10:55.268Z,1.60
2022-12-11T20:13:24.251Z,1.40
2022-12-11T20:15:52.709Z,1.30
2022-12-11T20:18:21.348Z,1.77
2022-12-11T20:20:51.541Z,1.37
2022-12-11T20:23:20.193Z,1.47
2022-12-11T20:25:48.748Z,1.57
2022-12-11T20:28:18.257Z,1.43
2022-12-11T20:30:48.766Z,1.53
2022-12-11T20:33:17.853Z,2.03
2022-12-11T20:35:46.659Z,1.60
2022-12-11T20:38:16.481Z,1.87
2022-12-11T20:40:47.658Z,1.67
2022-12-11T20:43:16.247Z,1.73
2022-12-11T20:45:48.799Z,1.70
2022-12-11T20:48:17.594Z,1.50
2022-12-11T20:50:46.124Z,1.50
2022-12-11T20:53:16.089Z,1.87
2022-12-11T20:55:45.102Z,1.67
2022-12-11T20:58:13.568Z,1.60
2022-12-11T21:00:42.145Z,1.40
2022-12-11T21:03:10.819Z,1.40
2022-12-11T21:05:41.971Z,1.37
2022-12-11T21:08:10.634Z,1.60
2022-12-11T21:10:42.713Z,1.53
2022-12-11T21:13:11.456Z,1.30
2022-12-11T21:15:40.222Z,1.30
2022-12-11T21:18:09.227Z,1.57
2022-12-11T21:20:38.121Z,1.40
2022-12-11T21:23:06.953Z,1.60
2022-12-11T21:25:35.524Z,1.40
2022-12-11T21:28:05.845Z,1.53
2022-12-11T21:30:34.427Z,1.30
2022-12-11T21:33:02.881Z,1.30
2022-12-11T21:35:31.500Z,1.30
2022-12-11T21:38:00.159Z,1.40
2022-12-11T21:40:28.612Z,1.57
2022-12-11T21:42:57.217Z,1.27
2022-12-11T21:48:15.823Z,1.70
2022-12-11T21:50:44.688Z,1.37
2022-12-11T21:53:13.225Z,1.30
2022-12-11T21:55:42.597Z,1.43
2022-12-11T21:58:11.444Z,1.00
2022-12-11T22:00:41.452Z,1.50
2022-12-11T22:03:09.997Z,1.33
2022-12-11T22:05:38.436Z,1.27
2022-12-11T22:08:07.229Z,1.40
2022-12-11T22:10:35.865Z,1.43
2022-12-11T22:13:04.307Z,1.07
2022-12-11T22:15:32.939Z,1.03
2022-12-11T22:18:02.843Z,1.30
2022-12-11T22:20:31.299Z,1.43
2022-12-11T22:22:59.876Z,1.30
2022-12-11T22:25:28.416Z,1.10
2022-12-11T22:27:56.921Z,1.27
2022-12-11T22:30:25.496Z,1.33
2022-12-11T22:32:54.072Z,1.60
2022-12-11T22:35:27.136Z,1.13
2022-12-11T22:37:56.613Z,1.20
2022-12-11T22:40:26.697Z,1.80
2022-12-11T22:42:55.189Z,1.03
2022-12-11T22:45:23.888Z,1.23
2022-12-11T22:47:52.427Z,1.30
2022-12-11T22:50:20.998Z,1.43
2022-12-11T22:52:50.988Z,1.43
2022-12-11T22:55:19.590Z,1.43
2022-12-11T22:57:48.109Z,1.20
2022-12-11T23:00:17.241Z,1.20
2022-12-11T23:02:46.439Z,1.50
2022-12-11T23:05:15.158Z,1.30
2022-12-11T23:07:43.760Z,1.30
2022-12-11T23:10:13.889Z,1.00
2022-12-11T23:12:42.714Z,1.20
2022-12-11T23:15:12.682Z,1.13
2022-12-11T23:17:41.406Z,1.50
2022-12-11T23:20:10.886Z,1.37
2022-12-11T23:22:39.548Z,1.23
2022-12-11T23:25:08.746Z,1.53
2022-12-11T23:27:38.591Z,1.33
2022-12-11T23:30:07.624Z,1.40
2022-12-11T23:32:36.309Z,1.33
2022-12-11T23:35:04.823Z,1.43
2022-12-11T23:37:33.601Z,1.60
2022-12-11T23:40:02.248Z,1.10
2022-12-11T23:42:30.682Z,1.43
2022-12-11T23:45:00.628Z,1.23
2022-12-11T23:47:29.211Z,1.37
2022-12-11T23:49:57.757Z,1.43
2022-12-11T23:52:26.749Z,1.40
2022-12-11T23:54:55.417Z,1.23
2022-12-11T23:57:24.048Z,1.00
2022-12-11T23:59:52.599Z,1.60
